Time;durP1;ratioP1;P1;durP2;ratioP2;P2;SDS_P1;SDS_P2;PMS_P1;PMS_P2;Temp;Humidity;BMP_temperature;BMP_pressure;BME280_temperature;BME280_humidity;BME280_pressure;Samples;Min_cycle;Max_cycle;Signal;HPM_P1;HPM_P2
2022/11/18 00:01:09;;;;;;;8.38;2.90;;;;;;;9.73;73.48;99410.50;5000224;28;20105;-59
2022/11/18 00:03:36;;;;;;;4.90;2.40;;;;;;;9.70;73.58;99413.84;4986880;28;20031;-60
2022/11/18 00:06:02;;;;;;;5.22;2.17;;;;;;;9.72;73.55;99406.09;4974741;28;20133;-60
2022/11/18 00:08:27;;;;;;;5.05;2.60;;;;;;;9.74;73.28;99412.16;4992732;28;20106;-60
2022/11/18 00:10:52;;;;;;;6.15;2.50;;;;;;;9.75;73.41;99415.78;4992728;28;20053;-59
2022/11/18 00:16:04;;;;;;;5.20;2.55;;;;;;;9.64;73.58;99412.22;4990281;28;20128;-60
2022/11/18 00:18:30;;;;;;;4.68;2.20;;;;;;;9.67;73.79;99408.03;4990634;28;20834;-60
2022/11/18 00:21:00;;;;;;;7.05;2.28;;;;;;;9.68;73.79;99420.78;4984375;28;20038;-60
2022/11/18 00:23:26;;;;;;;4.85;2.30;;;;;;;9.67;73.61;99422.75;4993087;28;20385;-60
2022/11/18 00:25:51;;;;;;;7.22;2.53;;;;;;;9.69;73.47;99423.28;4990959;28;20018;-60
2022/11/18 00:28:16;;;;;;;6.32;2.50;;;;;;;9.68;73.12;99423.56;4995368;28;20037;-60
2022/11/18 00:30:41;;;;;;;5.65;2.13;;;;;;;9.64;73.62;99430.78;4991521;28;20401;-60
2022/11/18 00:33:07;;;;;;;5.22;2.70;;;;;;;9.65;73.51;99436.03;4992369;28;20038;-57
2022/11/18 00:35:32;;;;;;;6.10;2.42;;;;;;;9.62;73.79;99428.28;4990376;28;20034;-59
2022/11/18 00:37:57;;;;;;;3.40;2.42;;;;;;;9.67;73.24;99441.28;4990286;28;20042;-58
2022/11/18 00:40:22;;;;;;;9.05;2.72;;;;;;;9.70;73.23;99437.94;5004050;28;20405;-59
2022/11/18 00:42:50;;;;;;;7.53;2.38;;;;;;;9.70;73.71;99435.19;4998767;28;20050;-59
2022/11/18 00:45:17;;;;;;;7.20;2.60;;;;;;;9.69;73.64;99445.44;4990854;28;20119;-59
2022/11/18 00:47:42;;;;;;;7.47;2.80;;;;;;;9.68;73.43;99449.31;4991942;28;20030;-60
2022/11/18 00:50:08;;;;;;;4.07;2.33;;;;;;;9.68;73.80;99454.03;4991892;28;20030;-59
2022/11/18 00:52:33;;;;;;;5.72;2.45;;;;;;;9.67;74.06;99452.34;4992449;28;20109;-59
2022/11/18 00:54:59;;;;;;;7.18;2.50;;;;;;;9.70;73.80;99454.56;4984357;28;20037;-59
2022/11/18 00:57:24;;;;;;;4.75;2.47;;;;;;;9.66;73.78;99459.03;4974478;28;20043;-59
2022/11/18 00:59:50;;;;;;;5.85;2.35;;;;;;;9.62;73.70;99460.69;4987186;28;20859;-59
2022/11/18 01:02:15;;;;;;;9.35;2.45;;;;;;;9.66;74.01;99467.34;4992306;28;20111;-59
2022/11/18 01:04:40;;;;;;;3.75;2.45;;;;;;;9.65;73.99;99465.69;4992156;28;20034;-59
2022/11/18 01:07:06;;;;;;;7.32;2.45;;;;;;;9.60;73.60;99463.75;4992370;28;20556;-59
2022/11/18 01:09:34;;;;;;;4.28;2.30;;;;;;;9.66;73.98;99472.88;4990885;28;20035;-59
2022/11/18 01:14:43;;;;;;;6.35;2.92;;;;;;;9.59;74.28;99485.09;4992134;28;20041;-59
2022/11/18 01:17:08;;;;;;;5.32;2.47;;;;;;;9.65;73.92;99487.84;4996841;28;20034;-59
2022/11/18 01:19:34;;;;;;;4.00;2.10;;;;;;;9.65;74.57;99485.06;4990381;28;20026;-59
2022/11/18 01:22:02;;;;;;;5.90;2.30;;;;;;;9.66;73.83;99486.72;4992077;28;20034;-59
2022/11/18 01:24:29;;;;;;;8.77;2.63;;;;;;;9.66;74.36;99490.31;4992156;28;20038;-60
2022/11/18 01:26:54;;;;;;;4.38;2.30;;;;;;;9.69;73.90;99492.53;4991191;28;20077;-60
2022/11/18 01:29:20;;;;;;;5.40;2.30;;;;;;;9.67;74.32;99496.69;4981818;28;20027;-59
2022/11/18 01:31:45;;;;;;;7.55;2.50;;;;;;;9.64;74.37;99506.41;4987938;28;20395;-59
2022/11/18 01:34:10;;;;;;;7.97;2.63;;;;;;;9.65;74.80;99504.47;5006372;28;20065;-59
2022/11/18 01:36:36;;;;;;;4.75;2.65;;;;;;;9.66;74.55;99500.56;5000852;28;20041;-59
2022/11/18 01:39:01;;;;;;;6.75;2.30;;;;;;;9.67;74.17;99505.00;4992035;28;20040;-59
2022/11/18 01:41:26;;;;;;;4.03;2.55;;;;;;;9.69;74.53;99511.09;4989882;28;20549;-59
2022/11/18 01:43:51;;;;;;;4.72;2.38;;;;;;;9.71;74.46;99514.44;4991057;28;20029;-59
2022/11/18 01:46:18;;;;;;;5.60;2.17;;;;;;;9.73;74.18;99514.97;4977506;28;20034;-59
2022/11/18 01:48:48;;;;;;;5.13;2.58;;;;;;;9.72;74.54;99516.09;4969560;28;20090;-59
2022/11/18 01:51:16;;;;;;;6.35;2.22;;;;;;;9.70;74.26;99524.66;4984663;28;20069;-59
2022/11/18 01:53:47;;;;;;;4.90;2.47;;;;;;;9.71;74.46;99522.75;4989406;28;20043;-59
2022/11/18 01:56:19;;;;;;;6.20;2.40;;;;;;;9.72;74.91;99521.63;4990869;28;20026;-60
2022/11/18 01:58:53;;;;;;;6.75;2.35;;;;;;;9.72;74.86;99524.41;4989700;28;20054;-59
2022/11/18 02:01:18;;;;;;;4.47;2.67;;;;;;;9.74;74.90;99524.94;4989481;28;20062;-59
2022/11/18 02:03:45;;;;;;;4.03;2.42;;;;;;;9.73;74.72;99526.88;4976263;28;20085;-59
2022/11/18 02:06:12;;;;;;;3.55;2.40;;;;;;;9.72;75.03;99529.94;4970744;28;20034;-59
2022/11/18 02:08:39;;;;;;;4.85;2.60;;;;;;;9.72;75.21;99528.00;4981926;28;20070;-59
2022/11/18 02:11:49;;;;;;;4.75;2.55;;;;;;;9.72;75.03;99538.25;4990995;28;20056;-59
2022/11/18 02:13:56;;;;;;;5.60;2.42;;;;;;;9.74;75.25;99541.56;4989057;28;20038;-59
2022/11/18 02:16:31;;;;;;;5.50;2.20;;;;;;;9.74;75.07;99539.63;4988454;28;20100;-59
2022/11/18 02:19:02;;;;;;;5.25;2.20;;;;;;;9.77;75.41;99543.78;4989016;28;20740;-59
2022/11/18 02:21:50;;;;;;;7.28;2.92;;;;;;;9.82;75.11;99547.41;4972992;28;20041;-59
2022/11/18 02:24:32;;;;;;;4.88;2.38;;;;;;;9.82;75.20;99554.84;4976654;28;20556;-59
2022/11/18 02:26:58;;;;;;;5.68;2.35;;;;;;;9.82;75.24;99554.84;4983455;28;20041;-59
2022/11/18 02:29:28;;;;;;;4.32;2.58;;;;;;;9.80;75.12;99554.31;4990757;28;20398;-59
2022/11/18 02:32:03;;;;;;;6.53;2.35;;;;;;;9.82;75.10;99557.63;4990464;28;20481;-59
2022/11/18 02:34:53;;;;;;;6.82;2.30;;;;;;;9.81;75.29;99558.75;4991229;28;20393;-59
2022/11/18 02:37:35;;;;;;;5.15;2.40;;;;;;;9.80;75.17;99559.84;4989560;28;20046;-59
2022/11/18 02:40:11;;;;;;;4.80;2.22;;;;;;;9.82;75.26;99565.94;4972264;28;20027;-59
2022/11/18 02:42:40;;;;;;;5.68;2.22;;;;;;;9.81;75.21;99561.50;4981225;28;20142;-59
2022/11/18 02:45:11;;;;;;;5.43;2.33;;;;;;;9.80;75.58;99569.00;4990056;28;20066;-59
2022/11/18 02:47:37;;;;;;;4.32;2.30;;;;;;;9.78;75.36;99565.66;4991377;28;20034;-59
2022/11/18 02:50:07;;;;;;;5.13;2.65;;;;;;;9.80;75.43;99576.47;4990437;28;20490;-59
2022/11/18 02:52:36;;;;;;;4.65;2.42;;;;;;;9.80;75.21;99579.25;4971610;28;20493;-59
2022/11/18 02:55:04;;;;;;;6.25;2.72;;;;;;;9.79;75.35;99583.97;4972028;28;20030;-59
2022/11/18 02:57:32;;;;;;;5.72;2.88;;;;;;;9.82;75.44;99582.56;4972987;28;20130;-59
2022/11/18 02:59:57;;;;;;;6.13;2.80;;;;;;;9.80;75.69;99584.78;4990093;28;20125;-59
2022/11/18 03:02:23;;;;;;;5.07;2.72;;;;;;;9.77;75.85;99579.81;4984224;28;20196;-59
2022/11/18 03:04:53;;;;;;;6.32;2.90;;;;;;;9.73;76.06;99590.63;4992734;28;20030;-59
2022/11/18 03:07:21;;;;;;;6.00;2.55;;;;;;;9.79;75.71;99583.16;4988084;28;20045;-59
2022/11/18 03:09:50;;;;;;;7.97;2.65;;;;;;;9.79;75.84;99588.69;4994211;28;20355;-59
2022/11/18 03:12:29;;;;;;;5.22;2.60;;;;;;;9.81;75.67;99590.06;4990368;28;20030;-59
2022/11/18 03:15:21;;;;;;;6.55;2.80;;;;;;;9.81;76.09;99594.75;4994520;28;20066;-59
2022/11/18 03:17:59;;;;;;;5.55;2.70;;;;;;;9.83;75.81;99595.34;4974304;28;20511;-59
2022/11/18 03:20:28;;;;;;;9.05;2.88;;;;;;;9.83;75.69;99607.25;4974079;28;20039;-60
2022/11/18 03:23:29;;;;;;;6.65;2.55;;;;;;;9.89;75.38;99605.28;4990524;28;20061;-59
2022/11/18 03:26:10;;;;;;;5.00;2.67;;;;;;;9.83;75.65;99606.41;4994830;28;20780;-59
2022/11/18 03:28:43;;;;;;;6.78;2.67;;;;;;;9.80;76.09;99606.97;4979282;28;20494;-59
2022/11/18 03:31:17;;;;;;;4.97;2.72;;;;;;;9.80;76.00;99610.56;4974437;28;20076;-59
2022/11/18 03:33:49;;;;;;;4.63;2.55;;;;;;;9.83;75.89;99617.50;4988415;28;20125;-59
2022/11/18 03:36:18;;;;;;;6.75;2.17;;;;;;;9.83;76.13;99617.50;4994041;28;20113;-59
2022/11/18 03:38:48;;;;;;;4.85;2.50;;;;;;;9.80;76.30;99623.59;4993721;28;20030;-59
2022/11/18 03:41:17;;;;;;;5.50;2.50;;;;;;;9.82;75.97;99627.75;4991218;28;20048;-59
2022/11/18 03:43:52;;;;;;;5.85;2.72;;;;;;;9.82;76.00;99632.44;4974750;28;20486;-59
2022/11/18 03:46:27;;;;;;;6.18;2.58;;;;;;;9.85;76.11;99631.91;4974175;28;20444;-59
2022/11/18 03:48:55;;;;;;;4.43;2.53;;;;;;;9.82;76.07;99636.06;4974280;28;20034;-60
2022/11/18 03:51:44;;;;;;;6.22;2.58;;;;;;;9.87;75.91;99632.47;4985939;28;20556;-59
2022/11/18 03:54:14;;;;;;;3.75;2.25;;;;;;;9.88;76.21;99641.59;4992829;28;20097;-59
2022/11/18 03:56:45;;;;;;;3.83;2.45;;;;;;;9.86;76.03;99644.63;4988143;28;20109;-60
2022/11/18 03:59:35;;;;;;;7.38;2.90;;;;;;;9.86;76.19;99650.19;4978644;28;20057;-59
2022/11/18 04:02:14;;;;;;;5.22;2.83;;;;;;;9.87;76.37;99643.56;4986580;28;20058;-59
2022/11/18 04:04:42;;;;;;;8.10;2.50;;;;;;;9.87;75.83;99651.03;4993174;28;20808;-59
2022/11/18 04:07:19;;;;;;;7.43;2.60;;;;;;;9.84;75.97;99652.41;4986988;28;20023;-59
2022/11/18 04:09:50;;;;;;;5.72;2.60;;;;;;;9.83;75.96;99668.22;4989093;28;20126;-59
2022/11/18 04:12:19;;;;;;;4.40;2.47;;;;;;;9.80;76.01;99666.00;4992572;28;20386;-59
2022/11/18 04:14:48;;;;;;;5.53;2.80;;;;;;;9.76;76.14;99673.19;4988895;28;20117;-59
2022/11/18 04:17:16;;;;;;;7.95;2.58;;;;;;;9.79;76.17;99682.91;4990132;28;20065;-59
2022/11/18 04:19:41;;;;;;;7.00;2.80;;;;;;;9.79;76.09;99683.72;4983439;28;20022;-59
2022/11/18 04:22:08;;;;;;;7.43;2.97;;;;;;;9.79;75.82;99671.81;4992594;28;20038;-59
2022/11/18 04:24:33;;;;;;;5.85;2.50;;;;;;;9.76;76.06;99680.69;4994267;28;20033;-60
2022/11/18 04:26:58;;;;;;;4.53;2.47;;;;;;;9.74;76.34;99680.94;4992544;28;20030;-59
2022/11/18 04:29:24;;;;;;;5.70;2.75;;;;;;;9.76;76.24;99683.44;4993054;28;20469;-59
2022/11/18 04:31:49;;;;;;;7.43;2.92;;;;;;;9.72;76.01;99687.88;4992902;28;20176;-59
2022/11/18 04:34:15;;;;;;;5.93;2.90;;;;;;;9.73;75.63;99684.81;4989523;28;20050;-59
2022/11/18 04:36:40;;;;;;;6.03;2.67;;;;;;;9.73;75.94;99692.31;4983440;28;20501;-59
2022/11/18 04:39:05;;;;;;;6.80;2.72;;;;;;;9.71;75.56;99697.31;4992799;28;20088;-59
2022/11/18 04:44:15;;;;;;;7.07;3.67;;;;;;;9.69;75.92;99700.34;4989992;28;20061;-59
2022/11/18 04:46:42;;;;;;;8.07;3.40;;;;;;;9.68;75.90;99706.16;4990394;28;20026;-59
2022/11/18 04:49:08;;;;;;;3.92;2.97;;;;;;;9.64;75.99;99711.44;4974287;28;20502;-59
2022/11/18 04:51:34;;;;;;;7.63;3.63;;;;;;;9.65;75.73;99712.25;4972940;28;20019;-59
2022/11/18 04:53:59;;;;;;;6.85;3.42;;;;;;;9.62;75.82;99713.63;4978373;28;20041;-60
2022/11/18 04:56:24;;;;;;;7.03;3.65;;;;;;;9.61;75.62;99711.13;4991758;28;20088;-59
2022/11/18 04:58:50;;;;;;;7.97;3.97;;;;;;;9.58;76.03;99712.50;4991947;28;20106;-59
2022/11/18 05:01:15;;;;;;;8.38;3.10;;;;;;;9.57;75.86;99717.22;4991720;28;20381;-59
2022/11/18 05:03:40;;;;;;;8.55;3.50;;;;;;;9.57;75.54;99721.94;4990130;28;20030;-59
2022/11/18 05:06:06;;;;;;;7.65;3.17;;;;;;;9.53;75.88;99724.41;4992380;28;20031;-59
2022/11/18 05:08:31;;;;;;;6.68;3.55;;;;;;;9.51;75.64;99726.66;4992304;28;20039;-59
2022/11/18 05:12:47;;;;;;;5.22;3.35;;;;;;;9.56;75.88;99734.97;4981153;28;20037;-59
2022/11/18 05:13:41;;;;;;;7.50;3.50;;;;;;;9.51;75.20;99723.88;4993035;28;20045;-59
2022/11/18 05:16:07;;;;;;;7.35;3.38;;;;;;;9.50;75.19;99729.66;4990334;28;20034;-60
2022/11/18 05:18:32;;;;;;;8.25;3.30;;;;;;;9.46;75.22;99740.47;4987239;28;20038;-59
2022/11/18 05:20:57;;;;;;;4.93;3.08;;;;;;;9.49;75.22;99739.09;4991556;28;20390;-59
2022/11/18 05:23:22;;;;;;;6.55;3.10;;;;;;;9.47;75.19;99739.38;4979490;28;20030;-59
2022/11/18 05:25:48;;;;;;;6.32;3.13;;;;;;;9.47;75.65;99744.91;4988852;28;20130;-59
2022/11/18 05:28:13;;;;;;;7.32;3.70;;;;;;;9.42;75.44;99742.13;4972324;28;20038;-59
2022/11/18 05:30:38;;;;;;;8.65;3.58;;;;;;;9.40;75.51;99744.34;4978462;28;20034;-60
2022/11/18 05:33:03;;;;;;;6.38;3.47;;;;;;;9.43;75.49;99745.72;4989597;28;20428;-60
2022/11/18 05:35:29;;;;;;;5.93;3.20;;;;;;;9.41;75.49;99751.53;4991715;28;20030;-59
2022/11/18 05:37:54;;;;;;;9.07;3.92;;;;;;;9.37;75.82;99753.19;4991764;28;20473;-59
2022/11/18 05:40:19;;;;;;;5.43;3.53;;;;;;;9.36;75.58;99764.53;4988205;28;20030;-59
2022/11/18 05:45:28;;;;;;;6.03;3.33;;;;;;;9.32;75.77;99767.03;4987099;28;20401;-59
2022/11/18 05:47:59;;;;;;;9.30;3.72;;;;;;;9.30;75.50;99767.28;4990748;28;20022;-59
2022/11/18 05:50:25;;;;;;;5.50;3.67;;;;;;;9.32;75.36;99767.03;4989907;28;20038;-59
2022/11/18 05:52:50;;;;;;;6.50;4.03;;;;;;;9.27;75.67;99767.81;4991202;28;20038;-59
2022/11/18 05:55:18;;;;;;;9.27;3.83;;;;;;;9.27;75.39;99769.75;4987970;28;20029;-59
2022/11/18 05:57:43;;;;;;;6.45;3.70;;;;;;;9.24;75.46;99781.38;4990330;28;20058;-59
2022/11/18 06:00:09;;;;;;;7.22;3.60;;;;;;;9.29;75.83;99778.63;4994502;28;20031;-59
2022/11/18 06:02:35;;;;;;;7.85;3.97;;;;;;;9.25;75.71;99785.81;4983206;28;20030;-58
2022/11/18 06:05:03;;;;;;;7.40;3.67;;;;;;;9.25;75.37;99791.34;4990858;28;20022;-58
2022/11/18 06:07:38;;;;;;;6.95;3.47;;;;;;;9.22;75.23;99789.13;4990191;28;20085;-58
2022/11/18 06:10:04;;;;;;;8.18;4.22;;;;;;;9.24;75.18;99787.75;4989301;28;20034;-59
2022/11/18 06:12:32;;;;;;;8.48;3.72;;;;;;;9.17;75.23;99797.41;4988732;28;20030;-59
2022/11/18 06:15:10;;;;;;;5.97;3.72;;;;;;;9.16;75.80;99795.75;4990151;28;20544;-59
2022/11/18 06:17:47;;;;;;;7.55;4.35;;;;;;;9.16;75.56;99801.28;4989888;28;20042;-59
2022/11/18 06:20:13;;;;;;;7.55;3.80;;;;;;;9.14;75.33;99803.47;4986612;28;20034;-59
2022/11/18 06:22:38;;;;;;;6.32;3.78;;;;;;;9.17;75.57;99817.63;4990965;28;20444;-59
2022/11/18 06:25:04;;;;;;;4.40;3.25;;;;;;;9.13;75.35;99812.91;4990898;28;20034;-58
2022/11/18 06:27:36;;;;;;;6.47;3.92;;;;;;;9.09;75.36;99818.97;4990602;28;20038;-59
2022/11/18 06:30:01;;;;;;;8.05;4.00;;;;;;;9.10;75.72;99823.41;4987978;28;20042;-59
2022/11/18 06:32:26;;;;;;;6.28;3.80;;;;;;;9.13;75.79;99829.50;4989640;28;20061;-58
2022/11/18 06:34:51;;;;;;;8.60;4.05;;;;;;;9.10;75.12;99836.41;4982116;28;20561;-58
2022/11/18 06:37:19;;;;;;;5.80;4.18;;;;;;;9.10;75.62;99837.22;4989143;28;20044;-58
2022/11/18 06:39:45;;;;;;;6.93;3.90;;;;;;;9.12;74.89;99839.75;4994605;28;20061;-59
2022/11/18 06:42:10;;;;;;;5.40;3.97;;;;;;;9.07;75.25;99842.47;4993226;28;20587;-59
2022/11/18 06:44:36;;;;;;;7.38;4.35;;;;;;;9.06;75.62;99847.19;4993752;28;20104;-59
2022/11/18 06:47:03;;;;;;;7.72;3.83;;;;;;;9.02;75.76;99848.81;4995353;28;20030;-59
2022/11/18 06:49:28;;;;;;;10.05;4.43;;;;;;;9.06;75.31;99851.88;4991309;28;20030;-59
2022/11/18 06:51:53;;;;;;;6.03;3.85;;;;;;;9.01;75.12;99855.47;4986485;28;20038;-58
2022/11/18 06:54:19;;;;;;;9.40;4.72;;;;;;;8.96;75.64;99852.66;4980450;28;20031;-60
2022/11/18 06:56:45;;;;;;;8.00;4.15;;;;;;;8.93;76.03;99861.50;4994179;28;20042;-60
2022/11/18 06:59:10;;;;;;;6.00;4.45;;;;;;;8.94;75.41;99868.69;4990180;28;20042;-59
2022/11/18 07:01:37;;;;;;;5.45;3.90;;;;;;;8.94;75.49;99868.69;4987846;28;20092;-58
2022/11/18 07:04:03;;;;;;;7.93;4.22;;;;;;;8.91;75.76;99871.97;4988959;28;20026;-59
2022/11/18 07:06:31;;;;;;;9.07;3.75;;;;;;;8.93;75.54;99874.50;4985645;28;20080;-59
2022/11/18 07:09:03;;;;;;;7.13;4.07;;;;;;;8.94;75.38;99882.53;4990996;28;20022;-58
2022/11/18 07:11:29;;;;;;;5.07;4.00;;;;;;;8.95;75.54;99877.81;4986877;28;20037;-59
2022/11/18 07:13:54;;;;;;;8.07;3.97;;;;;;;8.96;75.51;99885.88;4988475;28;20026;-61
2022/11/18 07:16:22;;;;;;;7.03;3.55;;;;;;;8.96;75.40;99885.03;4976686;28;20034;-59
2022/11/18 07:18:51;;;;;;;8.38;4.05;;;;;;;8.87;75.55;99889.38;4988954;28;20081;-59
2022/11/18 07:21:22;;;;;;;6.18;4.00;;;;;;;8.83;76.15;99902.91;5008277;28;20036;-58
2022/11/18 07:23:48;;;;;;;7.90;4.10;;;;;;;8.79;75.93;99899.84;4987590;28;20113;-60
2022/11/18 07:26:15;;;;;;;8.65;4.43;;;;;;;8.77;75.62;99898.47;4980015;28;20034;-59
2022/11/18 07:28:40;;;;;;;10.15;4.10;;;;;;;8.83;75.28;99911.22;4989576;28;20041;-61
2022/11/18 07:31:26;;;;;;;6.85;4.15;;;;;;;8.88;75.82;99910.41;4978652;28;20034;-62
2022/11/18 07:33:54;;;;;;;6.55;3.88;;;;;;;8.83;75.34;99916.75;4984612;28;20382;-63
2022/11/18 07:36:22;;;;;;;8.73;4.15;;;;;;;8.84;75.40;99915.66;4988364;28;20073;-62
2022/11/18 07:38:52;;;;;;;8.73;3.97;;;;;;;8.77;75.63;99920.59;4989907;28;20117;-62
2022/11/18 07:41:23;;;;;;;15.02;4.65;;;;;;;8.75;75.57;99922.78;4978119;28;20820;-61
2022/11/18 07:43:49;;;;;;;7.70;4.00;;;;;;;8.74;75.74;99924.72;4993300;28;20037;-61
2022/11/18 07:46:20;;;;;;;6.38;3.75;;;;;;;8.78;75.29;99931.38;4984513;28;20038;-59
2022/11/18 07:48:48;;;;;;;7.57;3.95;;;;;;;8.80;75.15;99926.44;4986871;28;20037;-61
2022/11/18 07:51:15;;;;;;;7.50;3.83;;;;;;;8.84;74.93;99932.25;4979536;28;20042;-61
2022/11/18 07:53:41;;;;;;;4.13;3.55;;;;;;;8.87;75.43;99939.19;4980151;28;20490;-61
2022/11/18 07:56:07;;;;;;;5.82;3.75;;;;;;;8.87;75.08;99937.25;4988089;28;20041;-60
2022/11/18 07:58:32;;;;;;;8.05;3.95;;;;;;;8.84;75.63;99943.31;4986551;28;20482;-60
2022/11/18 08:00:57;;;;;;;7.03;3.70;;;;;;;8.85;75.19;99945.84;4992872;28;20034;-60
2022/11/18 08:03:26;;;;;;;8.00;3.45;;;;;;;8.88;75.28;99950.00;4980997;28;20030;-60
2022/11/18 08:05:53;;;;;;;9.07;5.00;;;;;;;8.81;75.56;99953.00;4989583;28;20034;-60
2022/11/18 08:08:18;;;;;;;6.00;4.35;;;;;;;8.84;75.14;99954.38;4981322;28;20070;-61
2022/11/18 08:10:43;;;;;;;6.60;4.32;;;;;;;8.86;75.47;99954.97;4989661;28;20108;-61
2022/11/18 08:13:09;;;;;;;5.60;4.00;;;;;;;8.90;75.28;99961.66;4990589;28;20390;-61
2022/11/18 08:15:34;;;;;;;6.35;4.30;;;;;;;8.89;75.25;99960.00;4983903;28;20031;-61
2022/11/18 08:17:59;;;;;;;7.75;4.15;;;;;;;8.91;75.49;99974.38;4987645;28;20609;-61
2022/11/18 08:20:26;;;;;;;8.13;4.32;;;;;;;8.89;75.34;99973.00;4987596;28;20022;-60
2022/11/18 08:22:52;;;;;;;7.50;4.60;;;;;;;8.87;75.44;99975.19;4986041;28;20358;-60
2022/11/18 08:25:17;;;;;;;8.80;4.40;;;;;;;8.89;75.58;99982.13;4994857;28;20168;-61
2022/11/18 08:27:42;;;;;;;7.63;4.50;;;;;;;8.78;75.68;99983.13;4990181;28;20417;-62
2022/11/18 08:30:08;;;;;;;7.07;4.47;;;;;;;8.76;75.77;99986.16;4978918;28;20577;-61
2022/11/18 08:32:34;;;;;;;7.55;4.70;;;;;;;8.76;75.80;99990.84;4978729;28;20053;-61
2022/11/18 08:34:59;;;;;;;12.65;4.70;;;;;;;8.82;75.67;99985.09;4991770;28;20341;-61
2022/11/18 08:37:24;;;;;;;10.75;5.40;;;;;;;8.87;75.86;99992.59;4991496;28;20100;-61
2022/11/18 08:39:49;;;;;;;7.05;4.22;;;;;;;8.89;75.83;99993.19;4988870;28;20392;-61
2022/11/18 08:42:15;;;;;;;8.63;4.60;;;;;;;8.91;75.91;99985.44;4979101;28;20030;-61
2022/11/18 08:44:40;;;;;;;5.50;4.40;;;;;;;8.93;75.90;99991.56;4984047;28;20474;-61
2022/11/18 08:47:05;;;;;;;10.88;4.97;;;;;;;9.00;75.88;99992.19;4990282;28;20102;-59
2022/11/18 08:49:31;;;;;;;14.40;5.20;;;;;;;9.00;75.34;99997.72;4990351;28;20033;-60
2022/11/18 08:51:56;;;;;;;10.73;4.63;;;;;;;9.02;75.32;100003.81;4990743;28;20087;-60
2022/11/18 08:54:21;;;;;;;9.95;5.22;;;;;;;9.02;75.40;99995.50;4989036;28;20034;-60
2022/11/18 08:56:49;;;;;;;11.90;5.30;;;;;;;9.01;75.80;99998.56;4987205;28;20469;-60
2022/11/18 08:59:15;;;;;;;14.85;5.13;;;;;;;9.01;75.69;100007.69;4986210;28;20080;-60
2022/11/18 09:01:42;;;;;;;17.60;6.22;;;;;;;9.05;75.26;99999.69;4987206;28;20053;-60
2022/11/18 09:04:07;;;;;;;11.55;5.28;;;;;;;9.06;75.76;100018.81;4988940;28;20029;-60
2022/11/18 09:06:33;;;;;;;11.70;4.80;;;;;;;9.09;75.81;100011.91;4991770;28;20478;-61
2022/11/18 09:08:59;;;;;;;7.90;5.07;;;;;;;9.10;76.02;100019.13;4991920;28;20045;-60
2022/11/18 09:11:26;;;;;;;8.13;4.82;;;;;;;9.16;75.84;100009.75;4991902;28;20027;-60
2022/11/18 09:13:54;;;;;;;15.13;5.38;;;;;;;9.24;75.47;100013.97;4992395;28;20027;-60
2022/11/18 09:16:22;;;;;;;8.07;4.78;;;;;;;9.27;76.14;100017.03;4992346;28;20033;-60
2022/11/18 09:18:47;;;;;;;13.00;4.68;;;;;;;9.38;75.47;100019.88;4990996;28;20039;-60
2022/11/18 09:21:12;;;;;;;13.23;4.90;;;;;;;9.48;76.07;100015.25;4991926;28;20058;-60
2022/11/18 09:23:38;;;;;;;11.30;4.80;;;;;;;9.66;75.86;100024.22;4991405;28;20042;-60
2022/11/18 09:26:09;;;;;;;11.70;4.63;;;;;;;9.73;74.98;100022.91;4991541;28;20034;-60
2022/11/18 09:28:35;;;;;;;7.60;4.25;;;;;;;9.78;74.71;100030.41;4990953;28;20049;-59
2022/11/18 09:31:14;;;;;;;7.78;3.80;;;;;;;9.88;74.91;100036.00;5004603;28;20030;-60
2022/11/18 09:33:40;;;;;;;5.45;3.90;;;;;;;10.04;74.66;100039.69;4991587;28;20030;-59
2022/11/18 09:36:12;;;;;;;7.57;3.95;;;;;;;10.20;74.32;100046.16;4990818;28;20470;-59
2022/11/18 09:38:38;;;;;;;7.18;4.35;;;;;;;10.36;73.43;100047.09;4990866;28;20030;-59
2022/11/18 09:41:09;;;;;;;7.43;4.00;;;;;;;10.47;73.06;100052.41;4991926;28;20022;-59
2022/11/18 09:43:37;;;;;;;14.43;4.55;;;;;;;10.62;72.44;100050.78;4984766;28;20027;-59
2022/11/18 09:46:23;;;;;;;9.73;4.13;;;;;;;10.77;71.76;100059.16;5007281;28;20030;-60
2022/11/18 09:51:39;;;;;;;9.30;3.80;;;;;;;11.07;71.47;100073.09;4991539;28;20853;-60
2022/11/18 09:54:09;;;;;;;10.90;4.07;;;;;;;11.09;70.19;100077.56;4989269;28;20065;-60
2022/11/18 09:56:35;;;;;;;9.35;3.78;;;;;;;10.98;70.40;100085.84;4990585;28;20053;-60
2022/11/18 09:59:02;;;;;;;8.63;3.67;;;;;;;10.90;70.37;100085.56;4991330;28;20835;-60
2022/11/18 10:01:28;;;;;;;8.65;3.60;;;;;;;10.86;71.24;100095.53;4986408;28;20030;-60
2022/11/18 10:03:53;;;;;;;11.13;4.03;;;;;;;10.78;70.76;100083.84;4973642;28;20843;-60
2022/11/18 10:06:31;;;;;;;11.27;3.88;;;;;;;10.76;71.65;100096.34;4970220;28;20472;-60
2022/11/18 10:09:19;;;;;;;8.77;3.42;;;;;;;10.73;71.88;100096.91;4971550;28;20114;-60
2022/11/18 10:12:20;;;;;;;6.03;3.63;;;;;;;10.70;72.33;100092.72;4982168;28;20105;-60
2022/11/18 10:15:00;;;;;;;7.80;3.10;;;;;;;10.56;71.57;100097.94;4979001;28;20371;-60
2022/11/18 10:18:00;;;;;;;7.82;3.42;;;;;;;10.54;72.16;100100.16;4990358;28;20486;-60
2022/11/18 10:20:40;;;;;;;9.60;3.45;;;;;;;10.56;72.50;100100.69;4969856;28;20038;-60
2022/11/18 10:23:15;;;;;;;8.02;3.50;;;;;;;10.68;72.49;100099.63;4987421;28;20049;-60
2022/11/18 10:25:43;;;;;;;5.55;2.83;;;;;;;10.67;71.97;100097.97;4989596;28;20475;-59
2022/11/18 10:28:25;;;;;;;7.38;2.90;;;;;;;10.69;72.13;100106.84;4989848;28;20026;-59
2022/11/18 10:30:51;;;;;;;7.40;2.90;;;;;;;10.68;71.59;100110.75;4991273;28;20118;-60
2022/11/18 10:33:25;;;;;;;10.77;3.42;;;;;;;10.65;71.76;100111.28;4990941;28;20113;-59
2022/11/18 10:36:08;;;;;;;10.63;2.50;;;;;;;10.62;71.98;100111.84;4971156;28;20038;-59
2022/11/18 10:38:33;;;;;;;9.15;2.70;;;;;;;10.56;71.93;100114.56;4979908;28;20030;-60
2022/11/18 10:41:06;;;;;;;6.40;2.38;;;;;;;10.55;72.31;100115.69;4990102;28;20486;-60
2022/11/18 10:43:43;;;;;;;6.38;3.03;;;;;;;10.54;72.02;100114.03;4989637;28;20200;-60
2022/11/18 10:46:27;;;;;;;9.02;2.75;;;;;;;10.53;72.45;100117.91;4990713;28;20027;-61
2022/11/18 10:49:16;;;;;;;6.30;2.33;;;;;;;10.55;72.38;100118.47;4990533;28;20489;-60
2022/11/18 10:51:41;;;;;;;6.18;2.35;;;;;;;10.52;72.12;100119.00;4989640;28;20049;-60
2022/11/18 10:54:12;;;;;;;7.47;2.40;;;;;;;10.55;72.45;100126.78;4990241;28;20034;-60
2022/11/18 10:57:07;;;;;;;6.80;3.05;;;;;;;10.55;72.49;100121.25;4989930;28;20676;-60
2022/11/18 10:59:40;;;;;;;6.82;2.80;;;;;;;10.46;72.13;100119.28;4990859;28;20545;-60
2022/11/18 11:02:33;;;;;;;7.18;3.35;;;;;;;10.44;72.41;100130.63;4990644;28;20097;-60
2022/11/18 11:05:03;;;;;;;7.15;2.65;;;;;;;10.46;72.70;100130.38;4990949;28;20422;-60
2022/11/18 11:07:34;;;;;;;7.55;2.97;;;;;;;10.48;72.42;100125.38;4990398;28;20046;-60
2022/11/18 11:10:22;;;;;;;6.78;2.47;;;;;;;10.48;72.73;100128.97;4989276;28;20500;-60
2022/11/18 11:13:02;;;;;;;6.47;2.88;;;;;;;10.51;72.77;100134.00;4990722;28;20569;-60
2022/11/18 11:15:34;;;;;;;9.95;2.83;;;;;;;10.50;72.35;100126.78;4989655;28;20213;-60
2022/11/18 11:21:00;;;;;;;8.75;3.20;;;;;;;10.47;72.01;100143.13;4983800;28;20065;-60
2022/11/18 11:23:25;;;;;;;9.07;3.05;;;;;;;10.49;72.54;100143.69;4984088;28;20054;-60
2022/11/18 11:26:00;;;;;;;7.25;3.10;;;;;;;10.48;72.63;100142.00;4984485;28;20037;-61
2022/11/18 11:28:38;;;;;;;8.35;3.28;;;;;;;10.48;72.80;100140.06;4988791;28;20034;-61
2022/11/18 11:31:10;;;;;;;6.78;3.53;;;;;;;10.49;72.82;100136.22;4992041;28;20034;-63
2022/11/18 11:34:10;;;;;;;7.65;3.20;;;;;;;10.50;72.90;100146.19;4988041;28;20108;-61
2022/11/18 11:36:45;;;;;;;8.15;3.08;;;;;;;10.48;72.87;100145.63;4957138;28;20039;-61
2022/11/18 11:39:29;;;;;;;6.53;3.10;;;;;;;10.50;73.05;100148.97;4987364;28;20474;-61
2022/11/18 11:42:04;;;;;;;9.05;3.20;;;;;;;10.51;73.00;100153.41;4974067;28;20165;-61
2022/11/18 11:44:45;;;;;;;7.78;3.42;;;;;;;10.52;72.89;100149.53;4973807;28;20038;-61
2022/11/18 11:47:48;;;;;;;7.57;2.83;;;;;;;10.54;73.01;100147.31;4980096;28;20042;-62
2022/11/18 11:50:21;;;;;;;;;;;;;;;10.62;72.78;100156.25;4993453;28;20109;-62
2022/11/18 11:53:05;;;;;;;9.10;3.38;;;;;;;10.53;73.26;100154.00;4992364;28;19940;-61
2022/11/18 11:55:51;;;;;;;11.07;3.25;;;;;;;10.54;73.22;100163.97;4992282;28;20045;-61
2022/11/18 11:58:31;;;;;;;7.07;2.92;;;;;;;10.53;72.94;100162.31;4991618;28;20054;-61
2022/11/18 12:01:14;;;;;;;10.38;3.17;;;;;;;10.53;73.10;100156.75;4989685;28;20068;-61
2022/11/18 12:04:06;;;;;;;6.45;3.15;;;;;;;10.60;73.15;100164.00;4988536;28;20371;-61
2022/11/18 12:06:31;;;;;;;8.35;3.40;;;;;;;10.60;73.23;100162.06;4992095;28;20081;-62